createdAt,value
2017-09-20T00:00:21.759Z,11.49
2017-09-20T00:01:30.610Z,11.51
2017-09-20T00:02:39.785Z,11.49
2017-09-20T00:03:48.631Z,11.49
2017-09-20T00:04:57.475Z,11.47
2017-09-20T00:06:06.470Z,11.47
2017-09-20T00:07:15.312Z,11.43
2017-09-20T00:08:24.157Z,11.42
2017-09-20T00:09:33.024Z,11.51
2017-09-20T00:10:41.846Z,11.49
2017-09-20T00:11:50.993Z,11.51
2017-09-20T00:12:59.842Z,11.51
2017-09-20T00:14:08.687Z,11.44
2017-09-20T00:15:17.530Z,11.43
2017-09-20T00:16:26.373Z,11.44
2017-09-20T00:17:35.365Z,11.51
2017-09-20T00:18:44.207Z,11.65
2017-09-20T00:19:53.404Z,11.57
2017-09-20T00:21:02.243Z,11.54
2017-09-20T00:22:11.086Z,11.51
2017-09-20T00:23:20.029Z,11.52
2017-09-20T00:24:28.873Z,11.51
2017-09-20T00:25:37.715Z,11.55
2017-09-20T00:26:46.558Z,11.55
2017-09-20T00:27:55.399Z,11.47
2017-09-20T00:29:04.394Z,11.52
2017-09-20T00:30:13.236Z,11.6
2017-09-20T00:31:22.084Z,11.54
2017-09-20T00:32:30.920Z,11.58
2017-09-20T00:33:39.765Z,11.6
2017-09-20T00:34:48.858Z,11.54
2017-09-20T00:35:57.701Z,11.64
2017-09-20T00:37:06.545Z,11.58
2017-09-20T00:38:15.721Z,11.62
2017-09-20T00:39:24.562Z,11.72
2017-09-20T00:40:33.555Z,11.65
2017-09-20T00:41:42.396Z,11.6
2017-09-20T00:42:51.237Z,11.67
2017-09-20T00:44:00.079Z,11.62
2017-09-20T00:45:08.917Z,11.64
2017-09-20T00:46:18.009Z,11.64
2017-09-20T00:47:26.855Z,11.62
2017-09-20T00:48:35.700Z,11.72
2017-09-20T00:49:44.541Z,11.73
2017-09-20T00:50:53.386Z,11.72
2017-09-20T00:52:02.664Z,11.62
2017-09-20T00:53:11.509Z,11.73
2017-09-20T00:54:20.349Z,11.72
2017-09-20T00:55:29.521Z,11.67
2017-09-20T00:56:38.364Z,11.67
2017-09-20T00:57:47.254Z,11.76
2017-09-20T00:58:56.098Z,11.76
2017-09-20T01:00:04.946Z,11.7
2017-09-20T01:01:13.790Z,11.61
2017-09-20T01:02:22.631Z,11.72
2017-09-20T01:03:31.524Z,11.61
2017-09-20T01:04:40.370Z,11.73
2017-09-20T01:05:49.549Z,11.62
2017-09-20T01:06:58.389Z,11.58
2017-09-20T01:08:07.232Z,11.69
2017-09-20T01:09:16.378Z,11.72
2017-09-20T01:10:25.221Z,11.65
2017-09-20T01:11:34.064Z,11.67
2017-09-20T01:12:42.905Z,11.61
2017-09-20T01:13:51.749Z,11.65
2017-09-20T01:15:00.743Z,11.67
2017-09-20T01:16:09.584Z,11.65
2017-09-20T01:17:18.425Z,11.54
2017-09-20T01:18:27.272Z,11.61
2017-09-20T01:19:36.113Z,11.67
2017-09-20T01:20:45.007Z,11.58
2017-09-20T01:21:53.861Z,11.61
2017-09-20T01:23:02.689Z,11.67
2017-09-20T01:24:11.531Z,11.72
2017-09-20T01:25:20.373Z,11.69
2017-09-20T01:26:29.367Z,11.6
2017-09-20T01:27:38.210Z,11.72
2017-09-20T01:28:47.052Z,11.69
2017-09-20T01:29:55.895Z,11.58
2017-09-20T01:31:05.075Z,11.55
2017-09-20T01:32:13.968Z,11.67
2017-09-20T01:33:22.809Z,11.69
2017-09-20T01:34:31.657Z,11.67
2017-09-20T01:35:40.507Z,11.67
2017-09-20T01:36:49.346Z,11.67
2017-09-20T01:37:58.289Z,11.67
2017-09-20T01:39:07.471Z,11.69
2017-09-20T01:40:16.314Z,11.58
2017-09-20T01:41:25.156Z,11.65
2017-09-20T01:42:34.003Z,11.7
2017-09-20T01:43:43.143Z,11.67
2017-09-20T01:44:51.988Z,11.64
2017-09-20T01:46:00.832Z,11.72
2017-09-20T01:47:09.674Z,11.69
2017-09-20T01:48:18.516Z,11.72
2017-09-20T01:49:27.658Z,11.57
2017-09-20T01:50:36.499Z,11.52
2017-09-20T01:51:45.340Z,11.62
2017-09-20T01:52:54.183Z,11.61
2017-09-20T01:54:03.024Z,11.69
2017-09-20T01:55:12.170Z,11.7
2017-09-20T01:56:21.346Z,11.64
2017-09-20T01:57:30.188Z,11.55
2017-09-20T01:58:39.029Z,11.51
2017-09-20T01:59:48.204Z,11.49
2017-09-20T02:00:57.445Z,11.54
2017-09-20T02:02:06.287Z,11.54
2017-09-20T02:03:15.129Z,11.52
2017-09-20T02:04:23.972Z,11.57
2017-09-20T02:05:32.815Z,11.58
2017-09-20T02:06:41.808Z,11.57
2017-09-20T02:07:50.650Z,11.6
2017-09-20T02:08:59.490Z,11.52
2017-09-20T02:10:08.333Z,11.52
2017-09-20T02:11:17.173Z,11.51
2017-09-20T02:12:26.015Z,11.46
2017-09-20T02:13:34.857Z,11.51
2017-09-20T02:14:43.698Z,11.54
2017-09-20T02:15:52.540Z,11.42
2017-09-20T02:17:01.382Z,11.51
2017-09-20T02:18:10.424Z,11.54
2017-09-20T02:19:19.269Z,11.52
2017-09-20T02:20:28.111Z,11.46
2017-09-20T02:21:36.953Z,11.58
2017-09-20T02:22:45.792Z,11.47
2017-09-20T02:23:54.786Z,11.61
2017-09-20T02:25:03.628Z,11.55
2017-09-20T02:26:12.468Z,11.51
2017-09-20T02:27:21.312Z,11.52
2017-09-20T02:28:30.156Z,11.61
2017-09-20T02:29:39.198Z,11.51
2017-09-20T02:30:48.039Z,11.55
2017-09-20T02:31:56.880Z,11.51
2017-09-20T02:33:05.724Z,11.51
2017-09-20T02:34:14.566Z,11.58
2017-09-20T02:35:23.456Z,11.52
2017-09-20T02:36:32.297Z,11.52
2017-09-20T02:37:41.138Z,11.51
2017-09-20T02:38:49.981Z,11.52
2017-09-20T02:39:58.822Z,11.55
2017-09-20T02:41:07.765Z,11.47
2017-09-20T02:42:16.605Z,11.49
2017-09-20T02:43:25.444Z,11.57
2017-09-20T02:44:34.285Z,11.46
2017-09-20T02:45:43.123Z,11.49
2017-09-20T02:46:52.017Z,11.49
2017-09-20T02:48:00.861Z,11.6
2017-09-20T02:49:09.703Z,11.57
2017-09-20T02:50:18.541Z,11.54
2017-09-20T02:51:27.718Z,11.61
2017-09-20T02:52:36.662Z,11.57
2017-09-20T02:53:45.499Z,11.62
2017-09-20T02:54:54.345Z,11.61
2017-09-20T02:56:03.187Z,11.57
2017-09-20T02:57:12.030Z,11.61
2017-09-20T02:58:21.172Z,11.58
2017-09-20T02:59:30.013Z,11.58
2017-09-20T03:00:38.857Z,11.58
2017-09-20T03:01:47.696Z,11.58
2017-09-20T03:02:56.538Z,11.65
2017-09-20T03:04:05.479Z,11.52
2017-09-20T03:05:14.321Z,11.65
2017-09-20T03:06:23.160Z,11.6
2017-09-20T03:07:31.999Z,11.69
2017-09-20T03:08:40.840Z,11.64
2017-09-20T03:09:49.881Z,11.67
2017-09-20T03:10:58.721Z,11.6
2017-09-20T03:12:07.893Z,11.58
2017-09-20T03:13:16.736Z,11.62
2017-09-20T03:14:25.579Z,11.6
2017-09-20T03:15:34.472Z,11.73
2017-09-20T03:16:43.313Z,11.61
2017-09-20T03:17:52.156Z,11.61
2017-09-20T03:19:00.997Z,11.58
2017-09-20T03:20:09.839Z,11.6
2017-09-20T03:21:18.980Z,11.54
2017-09-20T03:22:27.818Z,11.55
2017-09-20T03:23:36.661Z,11.57
2017-09-20T03:24:45.500Z,11.55
2017-09-20T03:25:54.338Z,11.58
2017-09-20T03:27:03.181Z,11.61
2017-09-20T03:28:12.021Z,11.57
2017-09-20T03:29:20.863Z,11.7
2017-09-20T03:30:29.703Z,11.65
2017-09-20T03:31:38.544Z,11.67
2017-09-20T03:32:47.435Z,11.69
2017-09-20T03:33:56.276Z,11.6
2017-09-20T03:35:05.120Z,11.73
2017-09-20T03:36:13.958Z,11.62
2017-09-20T03:37:22.800Z,11.57
2017-09-20T03:38:31.738Z,11.57
2017-09-20T03:39:40.602Z,11.6
2017-09-20T03:40:49.419Z,11.57
2017-09-20T03:41:58.509Z,11.58
2017-09-20T03:43:07.351Z,11.6
2017-09-20T03:44:16.191Z,11.54
2017-09-20T03:45:25.031Z,11.6
2017-09-20T03:46:34.206Z,11.58
2017-09-20T03:47:43.049Z,11.6
2017-09-20T03:48:51.892Z,11.55
2017-09-20T03:50:00.781Z,11.47
2017-09-20T03:51:09.623Z,11.62
2017-09-20T03:52:18.466Z,11.58
2017-09-20T03:53:27.308Z,11.52
2017-09-20T03:54:36.155Z,11.6
2017-09-20T03:55:45.377Z,11.49
2017-09-20T03:56:54.219Z,11.57
2017-09-20T03:58:03.061Z,11.57
2017-09-20T03:59:11.902Z,11.67
2017-09-20T04:00:20.743Z,11.62
2017-09-20T04:01:29.734Z,11.61
2017-09-20T04:02:38.581Z,11.64
2017-09-20T04:03:47.756Z,11.6
2017-09-20T04:04:56.598Z,11.58
2017-09-20T04:06:05.441Z,11.61
2017-09-20T04:07:14.337Z,11.6
2017-09-20T04:08:23.181Z,11.57
2017-09-20T04:09:32.023Z,11.64
2017-09-20T04:10:40.867Z,11.64
2017-09-20T04:11:49.709Z,11.73
2017-09-20T04:12:58.605Z,11.69
2017-09-20T04:14:07.447Z,11.69
2017-09-20T04:15:16.291Z,11.67
2017-09-20T04:16:25.134Z,11.7
2017-09-20T04:17:33.976Z,11.65
2017-09-20T04:18:42.919Z,11.69
2017-09-20T04:19:51.763Z,11.65
2017-09-20T04:21:00.606Z,11.54
2017-09-20T04:22:09.447Z,11.54
2017-09-20T04:23:18.290Z,11.6
2017-09-20T04:24:27.233Z,11.69
2017-09-20T04:25:36.077Z,11.58
2017-09-20T04:26:44.922Z,11.6
2017-09-20T04:27:53.765Z,11.65
2017-09-20T04:29:02.607Z,11.65
2017-09-20T04:30:11.652Z,11.6
2017-09-20T04:31:20.493Z,11.62
2017-09-20T04:32:29.338Z,11.65
2017-09-20T04:33:38.178Z,11.7
2017-09-20T04:34:47.021Z,11.62
2017-09-20T04:35:55.914Z,11.69
2017-09-20T04:37:04.757Z,11.7
2017-09-20T04:38:13.601Z,11.7
2017-09-20T04:39:22.442Z,11.62
2017-09-20T04:40:31.284Z,11.67
2017-09-20T04:41:40.327Z,11.67
2017-09-20T04:42:49.166Z,11.58
2017-09-20T04:43:58.009Z,11.58
2017-09-20T04:45:06.849Z,11.69
2017-09-20T04:46:15.703Z,11.6
2017-09-20T04:47:24.798Z,11.62
2017-09-20T04:48:33.640Z,11.64
2017-09-20T04:49:42.484Z,11.67
2017-09-20T04:50:51.326Z,11.61
2017-09-20T04:52:00.170Z,11.54
2017-09-20T04:53:09.015Z,11.61
2017-09-20T04:54:17.858Z,11.54
2017-09-20T04:55:27.033Z,11.58
2017-09-20T04:56:35.877Z,11.55
2017-09-20T04:57:44.720Z,11.62
2017-09-20T04:58:53.560Z,11.6
2017-09-20T05:00:02.403Z,11.64
2017-09-20T05:01:11.248Z,11.72
2017-09-20T05:02:20.094Z,11.62
2017-09-20T05:03:28.940Z,11.58
2017-09-20T05:04:37.885Z,11.6
2017-09-20T05:05:46.729Z,11.58
2017-09-20T05:06:55.572Z,11.6
2017-09-20T05:08:04.413Z,11.67
2017-09-20T05:09:13.257Z,11.6
2017-09-20T05:10:22.354Z,11.67
2017-09-20T05:11:31.198Z,11.72
2017-09-20T05:12:40.067Z,11.62
2017-09-20T05:13:48.908Z,11.62
2017-09-20T05:14:57.754Z,11.75
2017-09-20T05:16:06.699Z,11.69
2017-09-20T05:17:15.540Z,11.69
2017-09-20T05:18:24.391Z,11.79
2017-09-20T05:19:33.236Z,11.75
2017-09-20T05:20:42.081Z,11.76
2017-09-20T05:21:50.975Z,11.64
2017-09-20T05:22:59.816Z,11.78
2017-09-20T05:24:08.659Z,11.72
2017-09-20T05:25:17.500Z,11.7
2017-09-20T05:26:26.342Z,11.6
2017-09-20T05:27:35.333Z,11.65
2017-09-20T05:28:44.179Z,11.6
2017-09-20T05:29:53.022Z,11.72
2017-09-20T05:31:01.865Z,11.7
2017-09-20T05:32:10.709Z,11.58
2017-09-20T05:33:19.558Z,11.7
2017-09-20T05:34:28.401Z,11.64
2017-09-20T05:35:37.245Z,11.75
2017-09-20T05:36:46.136Z,11.64
2017-09-20T05:37:55.281Z,11.75
2017-09-20T05:39:04.459Z,11.62
2017-09-20T05:40:13.300Z,11.64
2017-09-20T05:41:22.147Z,11.67
2017-09-20T05:42:30.991Z,11.58
2017-09-20T05:43:39.831Z,11.65
2017-09-20T05:44:48.676Z,11.58
2017-09-20T05:45:57.852Z,11.58
2017-09-20T05:47:06.695Z,11.65
2017-09-20T05:48:15.589Z,11.65
2017-09-20T05:49:24.429Z,11.61
2017-09-20T05:50:33.275Z,11.65
2017-09-20T05:51:42.118Z,11.7
2017-09-20T05:52:50.961Z,11.6
2017-09-20T05:53:59.806Z,11.73
2017-09-20T05:55:08.649Z,11.67
2017-09-20T05:56:17.492Z,11.73
2017-09-20T05:57:26.669Z,11.72
2017-09-20T05:58:35.763Z,11.69
2017-09-20T05:59:44.607Z,11.7
2017-09-20T06:00:53.462Z,11.82
2017-09-20T06:02:02.305Z,11.85
2017-09-20T06:03:11.151Z,11.76
2017-09-20T06:04:20.044Z,11.82
2017-09-20T06:05:29.222Z,11.73
2017-09-20T06:06:38.063Z,11.78
2017-09-20T06:07:46.906Z,11.75
2017-09-20T06:08:55.747Z,11.76
2017-09-20T06:10:04.742Z,11.8
2017-09-20T06:11:13.584Z,11.76
2017-09-20T06:12:22.456Z,11.8
2017-09-20T06:13:31.271Z,11.76
2017-09-20T06:14:40.116Z,11.76
2017-09-20T06:15:49.007Z,11.75
2017-09-20T06:16:57.852Z,11.76
2017-09-20T06:18:06.695Z,11.78
2017-09-20T06:19:15.539Z,11.73
2017-09-20T06:20:24.380Z,11.82
2017-09-20T06:21:33.526Z,11.75
2017-09-20T06:22:42.369Z,11.76
2017-09-20T06:23:51.212Z,11.79
2017-09-20T06:25:00.057Z,11.85
2017-09-20T06:26:08.902Z,11.82
2017-09-20T06:27:17.800Z,11.88
2017-09-20T06:28:26.645Z,11.88
2017-09-20T06:29:35.489Z,11.83
2017-09-20T06:30:44.333Z,11.9
2017-09-20T06:31:53.177Z,11.91
2017-09-20T06:33:02.323Z,11.91
2017-09-20T06:34:11.167Z,11.86
2017-09-20T06:35:20.009Z,11.95
2017-09-20T06:36:28.854Z,11.86
2017-09-20T06:37:37.701Z,11.86
2017-09-20T06:38:46.794Z,11.95
2017-09-20T06:39:55.639Z,11.91
2017-09-20T06:41:04.814Z,11.96
2017-09-20T06:42:13.659Z,11.91
2017-09-20T06:43:22.504Z,11.98
2017-09-20T06:44:31.398Z,11.9
2017-09-20T06:45:40.242Z,11.94
2017-09-20T06:46:49.085Z,12.05
2017-09-20T06:47:57.931Z,12.02
2017-09-20T06:49:06.776Z,12.1
2017-09-20T06:50:15.925Z,12.09
2017-09-20T06:51:24.769Z,12.1
2017-09-20T06:52:33.611Z,12.09
2017-09-20T06:53:42.461Z,12.02
2017-09-20T06:54:51.308Z,12.09
2017-09-20T06:56:00.206Z,12.1
2017-09-20T06:57:09.051Z,12.1
2017-09-20T06:58:17.902Z,12.1
2017-09-20T06:59:26.774Z,12.1
2017-09-20T07:00:35.619Z,12.04
2017-09-20T07:01:44.538Z,12.09
2017-09-20T07:02:53.387Z,12.09
2017-09-20T07:04:02.237Z,12.09
2017-09-20T07:05:11.102Z,12.16
2017-09-20T07:06:19.947Z,12.1
2017-09-20T07:07:29.091Z,12.16
2017-09-20T07:08:37.936Z,12.14
2017-09-20T07:09:46.782Z,12.12
2017-09-20T07:10:55.631Z,12.16
2017-09-20T07:12:04.839Z,12.19
2017-09-20T07:13:13.984Z,12.17
2017-09-20T07:14:22.828Z,12.17
2017-09-20T07:15:31.672Z,12.14
2017-09-20T07:16:40.545Z,12.16
2017-09-20T07:17:49.421Z,12.24
2017-09-20T07:18:58.416Z,12.29
2017-09-20T07:20:07.263Z,12.27
2017-09-20T07:21:16.199Z,12.28
2017-09-20T07:22:25.044Z,12.21
2017-09-20T07:23:33.892Z,12.37
2017-09-20T07:24:43.120Z,12.35
2017-09-20T07:25:51.964Z,12.39
2017-09-20T07:27:00.846Z,12.37
2017-09-20T07:28:09.751Z,12.46
2017-09-20T07:29:18.599Z,12.35
2017-09-20T07:30:27.596Z,12.45
2017-09-20T07:31:36.867Z,12.42
2017-09-20T07:32:45.712Z,12.45
2017-09-20T07:33:54.562Z,12.46
2017-09-20T07:35:03.410Z,12.45
2017-09-20T07:36:12.456Z,12.5
2017-09-20T07:37:21.302Z,12.5
2017-09-20T07:38:30.205Z,12.57
2017-09-20T07:39:39.124Z,12.54
2017-09-20T07:40:47.986Z,12.53
2017-09-20T07:41:57.117Z,12.6
2017-09-20T07:43:05.963Z,12.57
2017-09-20T07:44:14.807Z,12.53
2017-09-20T07:45:23.948Z,12.56
2017-09-20T07:46:32.977Z,12.67
2017-09-20T07:48:11.914Z,12.71
2017-09-20T07:49:21.395Z,12.68
2017-09-20T07:50:30.240Z,12.68
2017-09-20T07:51:39.089Z,12.67
2017-09-20T07:52:47.983Z,12.77
2017-09-20T07:53:56.827Z,12.79
2017-09-20T07:55:05.684Z,12.75
2017-09-20T07:56:14.573Z,12.82
2017-09-20T07:57:23.708Z,12.9
2017-09-20T07:58:33.197Z,12.79
2017-09-20T07:59:42.043Z,12.86
2017-09-20T08:00:51.134Z,12.87
2017-09-20T08:02:00.430Z,12.97
2017-09-20T08:03:09.324Z,12.97
2017-09-20T08:04:18.306Z,12.92
2017-09-20T08:05:27.555Z,12.87
2017-09-20T08:06:36.509Z,12.96
2017-09-20T08:07:45.468Z,13
2017-09-20T08:08:54.409Z,13.03
2017-09-20T08:10:03.481Z,13.03
2017-09-20T08:11:12.346Z,13.03
2017-09-20T08:12:21.219Z,13.11
2017-09-20T08:13:30.113Z,13.15
2017-09-20T08:14:39.023Z,13.22
2017-09-20T08:15:47.993Z,13.36
2017-09-20T08:16:56.864Z,13.33
2017-09-20T08:18:05.726Z,13.29
2017-09-20T08:19:14.590Z,13.36
2017-09-20T08:20:23.451Z,13.22
2017-09-20T08:21:32.662Z,13.32
2017-09-20T08:22:41.537Z,13.33
2017-09-20T08:23:50.407Z,13.32
2017-09-20T08:24:59.615Z,13.32
2017-09-20T08:26:08.458Z,13.32
2017-09-20T08:27:17.528Z,13.32
2017-09-20T08:28:26.480Z,13.36
2017-09-20T08:29:35.402Z,13.33
2017-09-20T08:30:44.276Z,13.38
2017-09-20T08:31:53.154Z,13.42
2017-09-20T08:33:02.254Z,13.48
2017-09-20T08:34:11.101Z,13.36
2017-09-20T08:35:19.945Z,13.46
2017-09-20T08:36:28.788Z,13.41
2017-09-20T08:37:37.633Z,13.44
2017-09-20T08:38:46.888Z,13.46
2017-09-20T08:39:55.743Z,13.51
2017-09-20T08:41:04.586Z,13.45
2017-09-20T08:42:13.734Z,13.44
2017-09-20T08:43:22.580Z,13.62
2017-09-20T08:44:31.475Z,13.54
2017-09-20T08:45:40.325Z,13.51
2017-09-20T08:46:49.166Z,13.55
2017-09-20T08:47:58.014Z,13.57
2017-09-20T08:49:06.861Z,13.59
2017-09-20T08:50:15.904Z,13.67
2017-09-20T08:51:24.833Z,13.51
2017-09-20T08:52:33.679Z,13.57
2017-09-20T08:53:42.525Z,13.52
2017-09-20T08:54:51.411Z,13.6
2017-09-20T08:56:00.325Z,13.54
2017-09-20T08:57:09.168Z,13.62
2017-09-20T08:58:18.070Z,13.64
2017-09-20T08:59:27.210Z,13.52
2017-09-20T09:00:36.401Z,13.67
2017-09-20T09:01:45.349Z,13.66
2017-09-20T09:02:54.193Z,13.62
2017-09-20T09:04:03.038Z,13.63
2017-09-20T09:05:11.884Z,13.6
2017-09-20T09:06:21.059Z,13.73
2017-09-20T09:07:30.054Z,13.73
2017-09-20T09:08:38.917Z,13.75
2017-09-20T09:09:47.784Z,13.73
2017-09-20T09:10:56.664Z,13.73
2017-09-20T09:12:05.822Z,13.77
2017-09-20T09:13:14.770Z,13.71
2017-09-20T09:14:23.607Z,13.67
2017-09-20T09:15:32.453Z,13.75
2017-09-20T09:16:41.302Z,13.75
2017-09-20T09:17:50.150Z,13.78
2017-09-20T09:18:59.460Z,13.75
2017-09-20T09:20:08.305Z,13.71
2017-09-20T09:21:17.237Z,13.67
2017-09-20T09:22:27.308Z,13.73
2017-09-20T09:23:36.168Z,13.73
2017-09-20T09:24:45.158Z,13.75
2017-09-20T09:25:54.003Z,13.77
2017-09-20T09:27:03.063Z,13.75
2017-09-20T09:28:12.057Z,13.75
2017-09-20T09:29:20.907Z,13.75
2017-09-20T09:30:29.933Z,13.71
2017-09-20T09:31:38.780Z,13.77
2017-09-20T09:32:47.626Z,13.79
2017-09-20T09:33:56.508Z,13.75
2017-09-20T09:35:05.368Z,13.81
2017-09-20T09:36:14.464Z,13.75
2017-09-20T09:37:23.310Z,13.79
2017-09-20T09:38:32.184Z,13.82
2017-09-20T09:39:41.361Z,13.81
2017-09-20T09:40:50.207Z,13.78
2017-09-20T09:41:59.172Z,13.82
2017-09-20T09:43:08.023Z,13.73
2017-09-20T09:44:16.889Z,13.73
2017-09-20T09:45:25.736Z,13.77
2017-09-20T09:46:34.582Z,13.78
2017-09-20T09:47:43.681Z,13.75
2017-09-20T09:48:52.526Z,13.79
2017-09-20T09:50:01.370Z,13.77
2017-09-20T09:51:10.754Z,13.78
2017-09-20T09:52:19.605Z,13.7
2017-09-20T09:53:28.753Z,13.77
2017-09-20T09:54:37.600Z,13.75
2017-09-20T09:55:46.464Z,13.78
2017-09-20T09:56:55.310Z,13.78
2017-09-20T09:58:04.157Z,13.84
2017-09-20T09:59:13.507Z,13.81
2017-09-20T10:00:22.353Z,13.77
2017-09-20T10:01:31.197Z,13.77
2017-09-20T10:02:40.041Z,13.78
2017-09-20T10:03:48.910Z,13.81
2017-09-20T10:04:57.835Z,13.81
2017-09-20T10:06:06.715Z,13.84
2017-09-20T10:07:16.004Z,13.88
2017-09-20T10:08:24.847Z,13.81
2017-09-20T10:09:33.695Z,13.79
2017-09-20T10:10:42.797Z,13.73
2017-09-20T10:11:51.646Z,13.75
2017-09-20T10:13:00.492Z,13.78
2017-09-20T10:14:09.357Z,13.77
2017-09-20T10:15:18.228Z,13.75
2017-09-20T10:16:27.376Z,13.77
2017-09-20T10:17:36.227Z,13.81
2017-09-20T10:18:45.076Z,13.81
2017-09-20T10:19:53.922Z,13.81
2017-09-20T10:21:02.767Z,13.78
2017-09-20T10:22:11.765Z,13.81
2017-09-20T10:23:20.612Z,13.73
2017-09-20T10:24:29.465Z,13.73
2017-09-20T10:25:38.641Z,13.69
2017-09-20T10:26:47.488Z,13.71
2017-09-20T10:27:56.489Z,13.7
2017-09-20T10:29:05.333Z,13.6
2017-09-20T10:30:14.184Z,13.52
2017-09-20T10:31:23.028Z,13.54
2017-09-20T10:32:31.876Z,13.44
2017-09-20T10:33:41.124Z,13.54
2017-09-20T10:34:49.967Z,13.55
2017-09-20T10:35:58.814Z,13.51
2017-09-20T10:37:07.658Z,13.55
2017-09-20T10:38:16.502Z,13.52
2017-09-20T10:39:25.448Z,13.51
2017-09-20T10:40:34.289Z,13.52
2017-09-20T10:41:43.136Z,13.52
2017-09-20T10:42:51.977Z,13.55
2017-09-20T10:44:00.823Z,13.49
2017-09-20T10:45:09.816Z,13.54
2017-09-20T10:46:18.659Z,13.49
2017-09-20T10:47:27.507Z,13.42
2017-09-20T10:48:36.690Z,13.51
2017-09-20T10:49:45.535Z,13.48
2017-09-20T10:50:54.528Z,13.48
2017-09-20T10:52:03.372Z,13.28
2017-09-20T10:53:12.216Z,13.29
2017-09-20T10:54:21.061Z,13.17
2017-09-20T10:55:29.906Z,13.28
2017-09-20T10:56:38.802Z,13.23
2017-09-20T10:57:47.986Z,13.15
2017-09-20T10:58:56.830Z,13.17
2017-09-20T11:00:06.014Z,13.25
2017-09-20T11:01:14.857Z,13.22
2017-09-20T11:02:23.806Z,13.14
2017-09-20T11:03:32.648Z,13.26
2017-09-20T11:04:41.498Z,13.17
2017-09-20T11:05:50.678Z,13.15
2017-09-20T11:06:59.523Z,13.17
2017-09-20T11:08:08.420Z,13.25
2017-09-20T11:09:17.265Z,13.22
2017-09-20T11:10:26.109Z,13.22
2017-09-20T11:11:34.953Z,13.25
2017-09-20T11:12:43.800Z,13.29
2017-09-20T11:13:52.796Z,13.32
2017-09-20T11:15:01.976Z,13.36
2017-09-20T11:16:10.818Z,13.32
2017-09-20T11:17:20.004Z,13.41
2017-09-20T11:18:29.181Z,13.46
2017-09-20T11:19:38.176Z,13.51
2017-09-20T11:20:47.022Z,13.45
2017-09-20T11:21:55.866Z,13.49
2017-09-20T11:23:04.709Z,13.46
2017-09-20T11:24:13.586Z,13.49
2017-09-20T11:25:22.816Z,13.42
2017-09-20T11:26:31.661Z,13.48
2017-09-20T11:27:40.508Z,13.57
2017-09-20T11:28:49.355Z,13.51
2017-09-20T11:29:58.199Z,13.54
2017-09-20T11:31:07.197Z,13.57
2017-09-20T11:32:16.724Z,13.59
2017-09-20T11:33:25.904Z,13.51
2017-09-20T11:34:34.747Z,13.52
2017-09-20T11:35:43.592Z,13.44
2017-09-20T11:36:52.586Z,13.51
2017-09-20T11:38:01.432Z,13.49
2017-09-20T11:39:10.277Z,13.59
2017-09-20T11:40:19.124Z,13.49
2017-09-20T11:41:27.967Z,13.55
2017-09-20T11:42:36.966Z,13.51
2017-09-20T11:43:45.816Z,13.49
2017-09-20T11:44:54.666Z,13.46
2017-09-20T11:46:03.510Z,13.51
2017-09-20T11:47:12.368Z,13.45
2017-09-20T11:48:21.416Z,13.52
2017-09-20T11:49:30.260Z,13.57
2017-09-20T11:50:39.107Z,13.51
2017-09-20T11:51:47.952Z,13.66
2017-09-20T11:52:56.794Z,13.62
2017-09-20T11:54:05.692Z,13.63
2017-09-20T11:55:14.541Z,13.64
2017-09-20T11:56:23.386Z,13.55
2017-09-20T11:57:32.233Z,13.51
2017-09-20T11:58:41.404Z,13.52
2017-09-20T11:59:50.398Z,13.54
2017-09-20T12:00:59.244Z,13.55
2017-09-20T12:02:08.419Z,13.54
2017-09-20T12:03:17.265Z,13.66
2017-09-20T12:04:26.111Z,13.7
2017-09-20T12:05:35.104Z,13.73
2017-09-20T12:06:43.950Z,13.69
2017-09-20T12:07:52.797Z,13.75
2017-09-20T12:09:01.645Z,13.7
2017-09-20T12:10:10.494Z,13.81
2017-09-20T12:11:19.487Z,13.75
2017-09-20T12:12:28.334Z,13.79
2017-09-20T12:13:37.176Z,13.71
2017-09-20T12:14:46.020Z,13.78
2017-09-20T12:15:54.865Z,13.78
2017-09-20T12:17:03.861Z,13.78
2017-09-20T12:18:12.706Z,13.79
2017-09-20T12:19:21.551Z,13.75
2017-09-20T12:20:30.732Z,13.75
2017-09-20T12:21:39.577Z,13.78
2017-09-20T12:22:48.521Z,13.87
2017-09-20T12:23:57.367Z,13.7
2017-09-20T12:25:06.212Z,13.77
2017-09-20T12:26:15.057Z,13.77
2017-09-20T12:27:23.903Z,13.78
2017-09-20T12:28:32.798Z,13.75
2017-09-20T12:29:41.646Z,13.71
2017-09-20T12:30:51.151Z,13.75
2017-09-20T12:31:59.999Z,13.73
2017-09-20T12:33:08.843Z,13.77
2017-09-20T12:34:18.070Z,13.78
2017-09-20T12:35:27.249Z,13.75
2017-09-20T12:36:36.096Z,13.78
2017-09-20T12:37:45.279Z,13.78
2017-09-20T12:38:54.121Z,13.77
2017-09-20T12:40:03.016Z,13.77
2017-09-20T12:41:11.861Z,13.79
2017-09-20T12:42:20.714Z,13.87
2017-09-20T12:43:29.931Z,13.82
2017-09-20T12:44:38.775Z,13.79
2017-09-20T12:45:47.920Z,13.81
2017-09-20T12:46:56.765Z,13.73
2017-09-20T12:48:05.610Z,13.77
2017-09-20T12:49:14.455Z,13.79
2017-09-20T12:50:23.301Z,13.7
2017-09-20T12:51:32.193Z,13.67
2017-09-20T12:52:41.039Z,13.64
2017-09-20T12:53:49.882Z,13.73
2017-09-20T12:54:58.727Z,13.62
2017-09-20T12:56:07.912Z,13.81
2017-09-20T12:57:16.905Z,13.84
2017-09-20T12:58:25.749Z,13.75
2017-09-20T12:59:34.594Z,13.87
2017-09-20T13:00:43.439Z,13.96
2017-09-20T13:01:52.283Z,13.91
2017-09-20T13:03:01.277Z,13.88
2017-09-20T13:04:10.122Z,13.95
2017-09-20T13:05:18.966Z,14.03
2017-09-20T13:06:27.813Z,14
2017-09-20T13:07:36.651Z,13.99
2017-09-20T13:08:45.554Z,14
2017-09-20T13:09:54.396Z,14.04
2017-09-20T13:11:03.241Z,14.07
2017-09-20T13:12:12.096Z,14.07
2017-09-20T13:13:20.934Z,14.12
2017-09-20T13:14:29.883Z,14.07
2017-09-20T13:15:38.728Z,14.12
2017-09-20T13:16:47.575Z,14.14
2017-09-20T13:17:56.425Z,14.07
2017-09-20T13:19:05.265Z,14.15
2017-09-20T13:20:14.160Z,14.17
2017-09-20T13:21:23.006Z,14.14
2017-09-20T13:22:31.904Z,14.2
2017-09-20T13:23:40.752Z,14.17
2017-09-20T13:24:49.599Z,14.15
2017-09-20T13:25:58.693Z,14.22
2017-09-20T13:27:07.537Z,14.27
2017-09-20T13:28:16.385Z,14.29
2017-09-20T13:29:25.227Z,14.28
2017-09-20T13:30:34.123Z,14.32
2017-09-20T13:31:43.169Z,14.33
2017-09-20T13:32:52.014Z,14.32
2017-09-20T13:34:00.859Z,14.28
2017-09-20T13:35:09.705Z,14.28
2017-09-20T13:36:18.548Z,14.35
2017-09-20T13:37:27.492Z,14.32
2017-09-20T13:38:36.340Z,14.46
2017-09-20T13:39:45.185Z,14.46
2017-09-20T13:40:54.031Z,14.51
2017-09-20T13:42:02.880Z,14.47
2017-09-20T13:43:11.873Z,14.51
2017-09-20T13:44:20.724Z,14.54
2017-09-20T13:45:29.569Z,14.51
2017-09-20T13:46:38.412Z,14.57
2017-09-20T13:47:47.269Z,14.55
2017-09-20T13:48:56.551Z,14.47
2017-09-20T13:50:05.397Z,14.5
2017-09-20T13:51:14.263Z,14.58
2017-09-20T13:52:23.123Z,14.62
2017-09-20T13:53:31.973Z,14.65
2017-09-20T13:54:40.919Z,14.6
2017-09-20T13:55:49.766Z,14.54
2017-09-20T13:56:58.613Z,14.58
2017-09-20T13:58:07.459Z,14.57
2017-09-20T13:59:16.304Z,14.52
2017-09-20T14:00:25.200Z,14.51
2017-09-20T14:01:34.041Z,14.54
2017-09-20T14:02:42.888Z,14.45
2017-09-20T14:03:51.741Z,14.55
2017-09-20T14:05:00.588Z,14.52
2017-09-20T14:06:09.836Z,14.58
2017-09-20T14:07:18.684Z,14.58
2017-09-20T14:08:27.529Z,14.6
2017-09-20T14:09:36.373Z,14.54
2017-09-20T14:10:45.552Z,14.54
2017-09-20T14:11:54.598Z,14.5
2017-09-20T14:13:03.443Z,14.5
2017-09-20T14:14:12.622Z,14.5
2017-09-20T14:15:21.468Z,14.36
2017-09-20T14:16:30.314Z,14.37
2017-09-20T14:17:39.257Z,14.43
2017-09-20T14:18:48.102Z,14.32
2017-09-20T14:19:56.947Z,14.35
2017-09-20T14:21:05.794Z,14.27
2017-09-20T14:22:14.656Z,14.29
2017-09-20T14:23:23.552Z,14.25
2017-09-20T14:24:32.398Z,14.25
2017-09-20T14:25:41.242Z,14.29
2017-09-20T14:26:50.088Z,14.29
2017-09-20T14:27:58.932Z,14.32
2017-09-20T14:29:07.778Z,14.33
2017-09-20T14:30:16.623Z,14.29
2017-09-20T14:31:25.468Z,14.36
2017-09-20T14:32:34.313Z,14.32
2017-09-20T14:33:43.458Z,14.36
2017-09-20T14:34:52.969Z,14.29
2017-09-20T14:36:01.830Z,14.35
2017-09-20T14:37:10.682Z,14.27
2017-09-20T14:38:19.562Z,14.25
2017-09-20T14:39:28.412Z,14.2
2017-09-20T14:40:37.590Z,14.09
2017-09-20T14:41:46.435Z,14.1
2017-09-20T14:42:55.279Z,14.1
2017-09-20T14:44:04.532Z,14.14
2017-09-20T14:45:13.376Z,14.14
2017-09-20T14:46:22.219Z,14.15
2017-09-20T14:47:31.065Z,14.12
2017-09-20T14:48:39.911Z,14.12
2017-09-20T14:49:48.753Z,14.07
2017-09-20T14:50:57.599Z,14